Time;durP1;ratioP1;P1;durP2;ratioP2;P2;SDS_P1;SDS_P2;PMS_P1;PMS_P2;Temp;Humidity;BMP_temperature;BMP_pressure;BME280_temperature;BME280_humidity;BME280_pressure;Samples;Min_cycle;Max_cycle;Signal;HPM_P1;HPM_P2
2023/07/28 00:02:03;;;;;;;2.80;0.73;;;;;;;;;;5071119;28;20040;-84
2023/07/28 00:04:29;;;;;;;0.30;0.30;;;;;;;;;;5071482;28;20470;-85
2023/07/28 00:06:54;;;;;;;0.63;0.60;;;;;;;;;;5069060;28;20498;-83
2023/07/28 00:09:20;;;;;;;0.75;0.55;;;;;;;;;;5071819;28;20035;-82
2023/07/28 00:11:46;;;;;;;0.65;0.47;;;;;;;;;;5071849;28;20028;-84
2023/07/28 00:14:11;;;;;;;0.45;0.45;;;;;;;;;;5070319;28;20380;-84
2023/07/28 00:16:37;;;;;;;0.40;0.40;;;;;;;;;;5070136;28;20045;-82
2023/07/28 00:19:03;;;;;;;1.05;0.80;;;;;;;;;;5071798;28;20114;-83
2023/07/28 00:21:29;;;;;;;0.22;0.17;;;;;;;;;;5071358;28;20041;-85
2023/07/28 00:23:54;;;;;;;0.77;0.70;;;;;;;;;;5073091;28;20200;-83
2023/07/28 00:26:20;;;;;;;1.48;0.70;;;;;;;;;;5072847;28;20031;-84
2023/07/28 00:28:45;;;;;;;1.17;0.93;;;;;;;;;;5075098;28;20087;-83
2023/07/28 00:31:11;;;;;;;1.67;0.90;;;;;;;;;;5075617;28;20025;-81
2023/07/28 00:33:37;;;;;;;1.17;0.50;;;;;;;;;;5076062;28;20036;-83
2023/07/28 00:36:03;;;;;;;0.50;0.50;;;;;;;;;;5073052;28;20036;-83
2023/07/28 00:38:28;;;;;;;0.38;0.38;;;;;;;;;;5071546;28;20061;-81
2023/07/28 00:40:54;;;;;;;0.35;0.30;;;;;;;;;;5074343;28;20029;-81
2023/07/28 00:43:19;;;;;;;0.40;0.40;;;;;;;;;;5074179;28;20048;-81
2023/07/28 00:45:45;;;;;;;0.60;0.60;;;;;;;;;;5070627;28;20024;-82
2023/07/28 00:48:13;;;;;;;0.45;0.25;;;;;;;;;;5074705;28;20032;-84
2023/07/28 00:50:43;;;;;;;0.22;0.22;;;;;;;;;;5075718;28;20032;-82
2023/07/28 00:53:09;;;;;;;0.73;0.68;;;;;;;;;;5070775;28;20040;-83
2023/07/28 00:55:35;;;;;;;0.50;0.50;;;;;;;;;;5076008;28;20017;-84
2023/07/28 00:58:00;;;;;;;0.40;0.40;;;;;;;;;;5073755;28;20028;-81
2023/07/28 01:00:25;;;;;;;0.43;0.43;;;;;;;;;;5073892;28;20024;-83
2023/07/28 01:02:51;;;;;;;0.50;0.50;;;;;;;;;;5073614;28;20024;-85
2023/07/28 01:05:16;;;;;;;0.85;0.60;;;;;;;;;;5073697;28;20079;-85
2023/07/28 01:08:03;;;;;;;0.65;0.52;;;;;;;;;;5074155;28;20480;-83
2023/07/28 01:10:32;;;;;;;0.40;0.40;;;;;;;;;;5075544;28;20372;-83
2023/07/28 01:12:57;;;;;;;0.53;0.40;;;;;;;;;;5073881;28;20032;-83
2023/07/28 01:15:23;;;;;;;0.20;0.20;;;;;;;;;;5072783;28;20273;-84
2023/07/28 01:17:49;;;;;;;1.00;0.90;;;;;;;;;;5073496;28;20044;-83
2023/07/28 01:20:14;;;;;;;0.28;0.22;;;;;;;;;;5075925;28;20107;-83
2023/07/28 01:23:06;;;;;;;0.75;0.32;;;;;;;;;;5073655;28;20035;-84
2023/07/28 01:25:50;;;;;;;0.28;0.28;;;;;;;;;;5072607;28;20531;-84
2023/07/28 01:28:18;;;;;;;0.68;0.52;;;;;;;;;;5075105;28;20033;-83
2023/07/28 01:30:43;;;;;;;0.40;0.40;;;;;;;;;;5072201;28;20028;-84
2023/07/28 01:33:09;;;;;;;2.55;0.52;;;;;;;;;;5073346;28;20034;-86
2023/07/28 01:35:38;;;;;;;0.40;0.40;;;;;;;;;;5073052;28;20035;-86
2023/07/28 01:38:04;;;;;;;0.50;0.47;;;;;;;;;;5073556;28;20502;-84
2023/07/28 01:40:29;;;;;;;0.30;0.30;;;;;;;;;;5072979;28;20434;-84
2023/07/28 01:42:55;;;;;;;0.30;0.30;;;;;;;;;;5075038;28;20028;-83
2023/07/28 01:45:20;;;;;;;0.20;0.20;;;;;;;;;;5074501;28;20146;-85
2023/07/28 01:47:46;;;;;;;0.20;0.20;;;;;;;;;;5073256;28;20024;-83
2023/07/28 01:50:12;;;;;;;0.30;0.30;;;;;;;;;;5075309;28;20028;-83
2023/07/28 01:52:37;;;;;;;0.43;0.43;;;;;;;;;;5074718;28;20021;-82
2023/07/28 01:55:03;;;;;;;1.08;0.70;;;;;;;;;;5075588;28;20056;-83
2023/07/28 01:57:33;;;;;;;0.17;0.10;;;;;;;;;;5074578;28;20020;-82
2023/07/28 01:59:58;;;;;;;0.30;0.30;;;;;;;;;;5075045;28;20476;-83
2023/07/28 02:02:24;;;;;;;0.10;0.10;;;;;;;;;;5075573;28;20090;-83
2023/07/28 02:04:49;;;;;;;1.15;0.68;;;;;;;;;;5072447;28;20038;-83
2023/07/28 02:07:15;;;;;;;0.30;0.30;;;;;;;;;;5072693;28;20067;-85
2023/07/28 02:09:40;;;;;;;0.55;0.55;;;;;;;;;;5072958;28;20427;-80
2023/07/28 02:12:06;;;;;;;0.90;0.82;;;;;;;;;;5074566;28;20457;-82
2023/07/28 02:14:31;;;;;;;0.80;0.77;;;;;;;;;;5072334;28;20052;-82
2023/07/28 02:16:57;;;;;;;0.65;0.45;;;;;;;;;;5071494;28;20057;-83
2023/07/28 02:19:24;;;;;;;0.75;0.63;;;;;;;;;;5071972;28;20036;-82
2023/07/28 02:21:49;;;;;;;1.35;1.02;;;;;;;;;;5073891;28;20020;-81
2023/07/28 02:24:15;;;;;;;0.30;0.30;;;;;;;;;;5074976;28;20036;-82
2023/07/28 02:26:40;;;;;;;1.17;0.70;;;;;;;;;;5074933;28;20380;-83
2023/07/28 02:29:06;;;;;;;1.80;1.42;;;;;;;;;;5073089;28;20025;-84
2023/07/28 02:31:31;;;;;;;1.00;0.93;;;;;;;;;;5074136;28;20375;-80
2023/07/28 02:33:57;;;;;;;0.25;0.20;;;;;;;;;;5073582;28;20025;-81
2023/07/28 02:36:22;;;;;;;0.52;0.52;;;;;;;;;;5076662;28;20425;-82
2023/07/28 02:38:48;;;;;;;1.33;0.80;;;;;;;;;;5069003;28;20094;-82
2023/07/28 02:41:13;;;;;;;0.60;0.55;;;;;;;;;;5071978;28;20047;-83
2023/07/28 02:43:39;;;;;;;0.40;0.40;;;;;;;;;;5073088;28;20426;-83
2023/07/28 02:46:04;;;;;;;0.32;0.32;;;;;;;;;;5072439;28;20032;-83
2023/07/28 02:48:30;;;;;;;0.52;0.52;;;;;;;;;;5073394;28;20131;-80
2023/07/28 02:50:55;;;;;;;0.47;0.47;;;;;;;;;;5072280;28;20421;-82
2023/07/28 02:53:21;;;;;;;0.65;0.20;;;;;;;;;;5071516;28;20032;-83
2023/07/28 02:55:48;;;;;;;0.95;0.80;;;;;;;;;;5073330;28;20028;-82
2023/07/28 02:58:14;;;;;;;0.55;0.55;;;;;;;;;;5072317;28;20028;-81
2023/07/28 03:00:44;;;;;;;2.05;1.05;;;;;;;;;;5072220;28;20020;-82
2023/07/28 03:03:11;;;;;;;1.10;0.47;;;;;;;;;;5071279;28;20029;-82
2023/07/28 03:05:37;;;;;;;0.60;0.50;;;;;;;;;;5072045;28;20134;-81
2023/07/28 03:08:03;;;;;;;0.38;0.38;;;;;;;;;;5071380;28;20158;-81
2023/07/28 03:10:29;;;;;;;0.40;0.40;;;;;;;;;;5071948;28;20024;-82
2023/07/28 03:12:55;;;;;;;1.13;0.77;;;;;;;;;;5070203;28;20040;-82
2023/07/28 03:15:24;;;;;;;0.52;0.45;;;;;;;;;;5073300;28;20077;-84
2023/07/28 03:17:50;;;;;;;0.93;0.50;;;;;;;;;;5071765;28;20029;-83
2023/07/28 03:20:16;;;;;;;0.73;0.73;;;;;;;;;;5071234;28;20016;-83
2023/07/28 03:22:42;;;;;;;0.63;0.63;;;;;;;;;;5071381;28;20119;-83
2023/07/28 03:25:08;;;;;;;1.33;1.23;;;;;;;;;;5071929;28;20024;-83
2023/07/28 03:27:33;;;;;;;0.20;0.20;;;;;;;;;;5069204;28;20115;-83
2023/07/28 03:29:59;;;;;;;1.15;1.05;;;;;;;;;;5069040;28;20437;-82
2023/07/28 03:32:25;;;;;;;0.70;0.70;;;;;;;;;;5070360;28;20428;-82
2023/07/28 03:34:50;;;;;;;1.10;0.75;;;;;;;;;;5070332;28;20067;-82
2023/07/28 03:37:16;;;;;;;0.45;0.45;;;;;;;;;;5074732;28;20028;-84
2023/07/28 03:39:41;;;;;;;0.95;0.85;;;;;;;;;;5071910;28;20033;-84
2023/07/28 03:42:07;;;;;;;0.90;0.63;;;;;;;;;;5070806;28;20028;-83
2023/07/28 03:44:33;;;;;;;0.68;0.68;;;;;;;;;;5069807;28;20522;-84
2023/07/28 03:46:59;;;;;;;1.45;1.02;;;;;;;;;;5072126;28;20103;-83
2023/07/28 03:49:24;;;;;;;0.30;0.30;;;;;;;;;;5069980;28;20112;-84
2023/07/28 03:51:50;;;;;;;0.22;0.17;;;;;;;;;;5070827;28;20525;-84
2023/07/28 03:54:16;;;;;;;1.40;0.98;;;;;;;;;;5072742;28;20574;-82
2023/07/28 03:56:41;;;;;;;1.08;0.43;;;;;;;;;;5072119;28;20028;-83
2023/07/28 03:59:06;;;;;;;0.60;0.57;;;;;;;;;;5074732;28;20028;-83
2023/07/28 04:01:32;;;;;;;1.48;1.38;;;;;;;;;;5073014;28;20032;-83
2023/07/28 04:03:58;;;;;;;2.30;2.10;;;;;;;;;;5075422;28;20027;-84
2023/07/28 04:06:44;;;;;;;2.28;1.05;;;;;;;;;;5073623;28;20085;-82
2023/07/28 04:09:16;;;;;;;0.32;0.32;;;;;;;;;;5074560;28;20035;-88
2023/07/28 04:11:41;;;;;;;0.55;0.50;;;;;;;;;;5060256;28;20163;-84
2023/07/28 04:14:07;;;;;;;1.08;0.82;;;;;;;;;;5087873;28;20033;-83
2023/07/28 04:16:33;;;;;;;1.55;1.23;;;;;;;;;;5084242;28;20542;-84
2023/07/28 04:18:58;;;;;;;3.42;1.55;;;;;;;;;;5080153;28;20028;-86
2023/07/28 04:21:24;;;;;;;1.75;1.42;;;;;;;;;;5079558;28;20020;-84
2023/07/28 04:23:50;;;;;;;1.23;1.15;;;;;;;;;;5069469;28;20086;-85
2023/07/28 04:26:16;;;;;;;1.77;1.13;;;;;;;;;;5071315;28;20085;-83
2023/07/28 04:28:42;;;;;;;2.08;1.23;;;;;;;;;;5073488;28;20069;-84
2023/07/28 04:31:08;;;;;;;0.63;0.63;;;;;;;;;;5071761;28;20406;-86
2023/07/28 04:33:34;;;;;;;1.25;1.15;;;;;;;;;;5073159;28;20055;-85
2023/07/28 04:36:00;;;;;;;1.55;1.40;;;;;;;;;;5074079;28;20024;-86
2023/07/28 04:38:26;;;;;;;1.15;1.05;;;;;;;;;;5103929;28;20028;-84
2023/07/28 04:40:52;;;;;;;1.33;0.95;;;;;;;;;;5072644;28;20028;-85
2023/07/28 04:43:17;;;;;;;2.15;1.30;;;;;;;;;;5072719;28;20051;-84
2023/07/28 04:45:44;;;;;;;1.73;0.88;;;;;;;;;;5069854;28;20380;-84
2023/07/28 04:48:10;;;;;;;1.63;1.13;;;;;;;;;;5071260;28;20029;-84
2023/07/28 04:50:36;;;;;;;2.80;1.52;;;;;;;;;;5072759;28;20032;-85
2023/07/28 04:53:02;;;;;;;1.48;1.33;;;;;;;;;;5071326;28;20450;-84
2023/07/28 04:55:27;;;;;;;1.45;1.35;;;;;;;;;;5073193;28;20024;-84
2023/07/28 04:57:53;;;;;;;1.17;1.08;;;;;;;;;;5074805;28;20506;-86
2023/07/28 05:00:19;;;;;;;1.48;1.05;;;;;;;;;;5072068;28;20078;-84
2023/07/28 05:02:44;;;;;;;1.05;0.95;;;;;;;;;;5071527;28;20430;-81
2023/07/28 05:05:10;;;;;;;1.33;1.23;;;;;;;;;;5070232;28;20028;-82
2023/07/28 05:07:36;;;;;;;1.15;1.05;;;;;;;;;;5067621;28;20032;-84
2023/07/28 05:10:01;;;;;;;1.58;1.30;;;;;;;;;;5072012;28;20024;-83
2023/07/28 05:12:27;;;;;;;1.92;1.83;;;;;;;;;;5071456;28;20087;-84
2023/07/28 05:14:53;;;;;;;1.02;0.93;;;;;;;;;;5071132;28;20035;-82
2023/07/28 05:17:19;;;;;;;2.05;1.30;;;;;;;;;;5068098;28;20397;-83
2023/07/28 05:19:44;;;;;;;1.45;1.17;;;;;;;;;;5068996;28;20062;-84
2023/07/28 05:22:09;;;;;;;1.17;1.00;;;;;;;;;;5071661;28;20739;-84
2023/07/28 05:24:35;;;;;;;1.17;1.02;;;;;;;;;;5069909;28;20123;-84
2023/07/28 05:27:01;;;;;;;1.13;0.95;;;;;;;;;;5070913;28;20389;-83
2023/07/28 05:29:26;;;;;;;1.25;1.05;;;;;;;;;;5069906;28;20029;-83
2023/07/28 05:31:52;;;;;;;1.85;1.17;;;;;;;;;;5068803;28;20025;-84
2023/07/28 05:34:17;;;;;;;1.73;1.23;;;;;;;;;;5066760;28;20037;-83
2023/07/28 05:36:44;;;;;;;0.98;0.82;;;;;;;;;;5070652;28;20036;-82
2023/07/28 05:39:09;;;;;;;1.88;1.38;;;;;;;;;;5065633;28;20373;-83
2023/07/28 05:41:35;;;;;;;1.75;1.60;;;;;;;;;;5068920;28;20024;-84
2023/07/28 05:44:01;;;;;;;2.40;1.52;;;;;;;;;;5071609;28;20133;-85
2023/07/28 05:46:26;;;;;;;1.02;0.95;;;;;;;;;;5066625;28;20074;-84
2023/07/28 05:48:54;;;;;;;1.55;1.08;;;;;;;;;;5069030;28;20036;-82
2023/07/28 05:51:20;;;;;;;1.35;1.17;;;;;;;;;;5070650;28;20125;-84
2023/07/28 05:53:45;;;;;;;1.63;1.23;;;;;;;;;;5070468;28;20490;-82
2023/07/28 05:56:11;;;;;;;1.83;1.33;;;;;;;;;;5073962;28;20705;-85
2023/07/28 05:58:36;;;;;;;1.52;1.35;;;;;;;;;;5070558;28;20369;-84
2023/07/28 06:01:02;;;;;;;1.30;1.00;;;;;;;;;;5071314;28;20042;-86
2023/07/28 06:03:29;;;;;;;2.17;1.20;;;;;;;;;;5069632;28;20447;-85
2023/07/28 06:05:54;;;;;;;1.60;1.23;;;;;;;;;;5068357;28;20074;-83
2023/07/28 06:08:20;;;;;;;0.93;0.82;;;;;;;;;;5070658;28;20048;-85
2023/07/28 06:10:45;;;;;;;2.00;1.42;;;;;;;;;;5069747;28;21246;-84
2023/07/28 06:13:10;;;;;;;1.58;1.00;;;;;;;;;;5070538;28;20032;-83
2023/07/28 06:15:39;;;;;;;1.33;1.02;;;;;;;;;;5067247;28;20032;-85
2023/07/28 06:18:06;;;;;;;2.05;1.20;;;;;;;;;;5071733;28;20036;-87
2023/07/28 06:20:31;;;;;;;1.58;1.15;;;;;;;;;;5068303;28;20032;-85
2023/07/28 06:22:57;;;;;;;3.45;1.50;;;;;;;;;;5069973;28;20435;-83
2023/07/28 06:25:22;;;;;;;1.85;1.38;;;;;;;;;;5070622;28;20082;-84
2023/07/28 06:27:48;;;;;;;2.13;1.10;;;;;;;;;;5071323;28;20047;-84
2023/07/28 06:30:13;;;;;;;1.48;1.25;;;;;;;;;;5071808;28;20107;-84
2023/07/28 06:32:38;;;;;;;3.67;1.05;;;;;;;;;;5067878;28;20486;-84
2023/07/28 06:35:06;;;;;;;1.88;1.02;;;;;;;;;;5069458;28;20028;-82
2023/07/28 06:37:32;;;;;;;1.52;0.98;;;;;;;;;;5069483;28;20027;-86
2023/07/28 06:39:58;;;;;;;1.17;1.00;;;;;;;;;;5064889;28;20028;-82
2023/07/28 06:42:24;;;;;;;1.35;1.00;;;;;;;;;;5071375;28;20098;-85
2023/07/28 06:44:52;;;;;;;1.17;0.88;;;;;;;;;;5066116;28;20025;-84
2023/07/28 06:47:18;;;;;;;3.00;1.50;;;;;;;;;;5070362;28;20134;-83
2023/07/28 06:49:44;;;;;;;6.38;1.45;;;;;;;;;;5070578;28;20032;-84
2023/07/28 06:52:09;;;;;;;1.58;1.02;;;;;;;;;;5071255;28;20031;-85
2023/07/28 06:54:35;;;;;;;0.82;0.75;;;;;;;;;;5071224;28;20105;-85
2023/07/28 06:57:00;;;;;;;0.75;0.75;;;;;;;;;;5069571;28;20028;-83
2023/07/28 06:59:26;;;;;;;4.15;1.10;;;;;;;;;;5070603;28;20395;-81
2023/07/28 07:01:52;;;;;;;1.17;1.05;;;;;;;;;;5070167;28;20028;-82
2023/07/28 07:04:18;;;;;;;1.38;1.25;;;;;;;;;;5070042;28;20063;-82
2023/07/28 07:06:44;;;;;;;1.85;1.20;;;;;;;;;;5071511;28;20563;-81
2023/07/28 07:09:14;;;;;;;1.70;1.27;;;;;;;;;;5070002;28;20066;-82
2023/07/28 07:11:39;;;;;;;1.02;0.80;;;;;;;;;;5068394;28;20021;-82
2023/07/28 07:14:05;;;;;;;1.33;1.02;;;;;;;;;;5066888;28;20116;-81
2023/07/28 07:16:30;;;;;;;1.55;1.05;;;;;;;;;;5070778;28;20074;-81
2023/07/28 07:18:56;;;;;;;0.90;0.90;;;;;;;;;;5066562;28;20025;-80
2023/07/28 07:21:21;;;;;;;4.60;1.35;;;;;;;;;;5068455;28;20028;-80
2023/07/28 07:23:47;;;;;;;0.98;0.90;;;;;;;;;;5065830;28;20029;-80
2023/07/28 07:26:13;;;;;;;0.75;0.68;;;;;;;;;;5069445;28;20071;-81
2023/07/28 07:28:38;;;;;;;1.63;1.20;;;;;;;;;;5068374;28;20392;-81
2023/07/28 07:31:03;;;;;;;1.27;0.90;;;;;;;;;;5069804;28;20071;-80
2023/07/28 07:33:29;;;;;;;2.42;1.33;;;;;;;;;;5067282;28;20029;-81
2023/07/28 07:35:54;;;;;;;2.10;1.65;;;;;;;;;;5070302;28;20032;-81
2023/07/28 07:38:20;;;;;;;1.05;0.93;;;;;;;;;;5064035;28;20032;-79
2023/07/28 07:40:48;;;;;;;1.58;1.20;;;;;;;;;;5074973;28;20021;-81
2023/07/28 07:43:20;;;;;;;1.65;1.30;;;;;;;;;;5065901;28;20035;-81
2023/07/28 07:45:46;;;;;;;0.68;0.68;;;;;;;;;;5069602;28;20498;-83
2023/07/28 07:48:12;;;;;;;1.13;0.85;;;;;;;;;;5068962;28;20480;-80
2023/07/28 07:50:38;;;;;;;0.80;0.80;;;;;;;;;;5069231;28;20024;-80
2023/07/28 07:53:04;;;;;;;1.17;1.08;;;;;;;;;;5070584;28;20078;-80
2023/07/28 07:55:31;;;;;;;0.77;0.77;;;;;;;;;;5068780;28;20029;-79
2023/07/28 07:57:57;;;;;;;0.80;0.80;;;;;;;;;;5068953;28;20028;-79
2023/07/28 08:00:23;;;;;;;3.88;1.10;;;;;;;;;;5065914;28;20040;-78
2023/07/28 08:02:49;;;;;;;2.60;1.75;;;;;;;;;;5068949;28;20395;-79
2023/07/28 08:05:15;;;;;;;2.45;1.65;;;;;;;;;;5069503;28;20016;-79
2023/07/28 08:07:40;;;;;;;1.10;1.00;;;;;;;;;;5069608;28;20735;-79
2023/07/28 08:10:06;;;;;;;2.05;1.13;;;;;;;;;;5068121;28;20052;-79
2023/07/28 08:12:32;;;;;;;1.50;1.00;;;;;;;;;;5068119;28;20024;-80
2023/07/28 08:14:57;;;;;;;1.20;1.10;;;;;;;;;;5068608;28;20074;-79
2023/07/28 08:17:23;;;;;;;1.15;0.80;;;;;;;;;;5066650;28;20036;-79
2023/07/28 08:19:49;;;;;;;6.18;1.52;;;;;;;;;;5070543;28;20046;-79
2023/07/28 08:22:14;;;;;;;2.03;1.65;;;;;;;;;;5068502;28;20024;-80
2023/07/28 08:24:40;;;;;;;1.65;1.27;;;;;;;;;;5067745;28;20031;-80
2023/07/28 08:27:06;;;;;;;1.90;1.35;;;;;;;;;;5067437;28;20439;-80
2023/07/28 08:29:31;;;;;;;1.52;0.85;;;;;;;;;;5068746;28;20085;-80
2023/07/28 08:31:56;;;;;;;2.33;1.50;;;;;;;;;;5068728;28;21218;-82
2023/07/28 08:34:22;;;;;;;1.80;1.40;;;;;;;;;;5067270;28;20120;-81
2023/07/28 08:36:48;;;;;;;1.73;1.35;;;;;;;;;;5068574;28;20033;-81
2023/07/28 08:39:14;;;;;;;1.92;1.63;;;;;;;;;;5067255;28;20361;-81
2023/07/28 08:41:40;;;;;;;2.67;1.38;;;;;;;;;;5069382;28;20032;-82
2023/07/28 08:44:07;;;;;;;1.15;0.90;;;;;;;;;;5070639;28;20028;-81
2023/07/28 08:46:34;;;;;;;1.13;1.02;;;;;;;;;;5068230;28;20035;-81
2023/07/28 08:49:00;;;;;;;1.08;0.98;;;;;;;;;;5070914;28;20044;-82
2023/07/28 08:51:25;;;;;;;1.27;1.02;;;;;;;;;;5073924;28;20032;-82
2023/07/28 08:53:51;;;;;;;1.70;1.20;;;;;;;;;;5067251;28;20060;-82
2023/07/28 08:56:16;;;;;;;1.15;1.00;;;;;;;;;;5071304;28;20036;-80
2023/07/28 08:58:42;;;;;;;2.13;1.42;;;;;;;;;;5072170;28;20028;-84
2023/07/28 09:01:07;;;;;;;2.53;1.48;;;;;;;;;;5072743;28;20020;-82
2023/07/28 09:03:37;;;;;;;1.52;1.23;;;;;;;;;;5072021;28;20035;-82
2023/07/28 09:06:03;;;;;;;;;;;;;;;;;;5072230;28;20031;-83
2023/07/28 09:08:32;;;;;;;1.10;1.00;;;;;;;;;;5071125;28;19916;-83
2023/07/28 09:11:02;;;;;;;1.03;0.97;;;;;;;;;;5071092;28;20480;-82
2023/07/28 09:13:36;;;;;;;1.30;0.90;;;;;;;;;;5068995;28;20031;-81
2023/07/28 09:16:01;;;;;;;10.88;1.35;;;;;;;;;;5070144;28;20048;-81
2023/07/28 09:18:30;;;;;;;2.28;1.10;;;;;;;;;;5069433;28;20106;-83
2023/07/28 09:20:55;;;;;;;2.50;1.63;;;;;;;;;;5071376;28;20028;-81
2023/07/28 09:23:30;;;;;;;1.55;1.20;;;;;;;;;;5069706;28;20400;-81
2023/07/28 09:26:01;;;;;;;1.13;0.98;;;;;;;;;;5069177;28;20059;-84
2023/07/28 09:28:38;;;;;;;1.25;0.98;;;;;;;;;;5071029;28;20425;-86
2023/07/28 09:31:04;;;;;;;1.33;1.08;;;;;;;;;;5068334;28;20496;-83
2023/07/28 09:33:34;;;;;;;0.80;0.80;;;;;;;;;;5069460;28;20035;-83
2023/07/28 09:36:11;;;;;;;1.15;0.75;;;;;;;;;;5071768;28;20024;-79
2023/07/28 09:38:38;;;;;;;1.38;1.17;;;;;;;;;;5070920;28;20052;-82
2023/07/28 09:41:09;;;;;;;0.55;0.55;;;;;;;;;;5069562;28;20108;-82
2023/07/28 09:43:35;;;;;;;3.72;1.10;;;;;;;;;;5070527;28;20063;-82
2023/07/28 09:46:06;;;;;;;1.73;1.25;;;;;;;;;;5068810;28;20036;-82
2023/07/28 09:48:33;;;;;;;2.53;0.93;;;;;;;;;;5070109;28;20032;-82
2023/07/28 09:51:06;;;;;;;1.73;1.15;;;;;;;;;;5069437;28;20028;-84
2023/07/28 09:53:38;;;;;;;0.70;0.70;;;;;;;;;;5070251;28;20361;-83
2023/07/28 09:56:04;;;;;;;3.90;1.60;;;;;;;;;;5068287;28;20107;-83
2023/07/28 09:58:33;;;;;;;1.00;0.60;;;;;;;;;;5069551;28;20103;-83
2023/07/28 10:01:00;;;;;;;1.15;0.80;;;;;;;;;;5067286;28;20036;-85
2023/07/28 10:03:26;;;;;;;1.13;0.82;;;;;;;;;;5065195;28;21126;-85
2023/07/28 10:05:52;;;;;;;0.88;0.60;;;;;;;;;;5096111;28;20070;-83
2023/07/28 10:08:17;;;;;;;2.92;1.17;;;;;;;;;;5067165;28;20048;-83
2023/07/28 10:10:43;;;;;;;1.42;0.93;;;;;;;;;;5065837;28;20094;-80
2023/07/28 10:13:19;;;;;;;1.35;0.82;;;;;;;;;;5066668;28;20029;-85
2023/07/28 10:15:47;;;;;;;0.88;0.85;;;;;;;;;;5064549;28;20052;-85
2023/07/28 10:18:13;;;;;;;1.08;0.68;;;;;;;;;;5066531;28;20024;-84
2023/07/28 10:20:40;;;;;;;6.10;1.52;;;;;;;;;;5064563;28;20029;-83
2023/07/28 10:23:12;;;;;;;2.60;1.17;;;;;;;;;;5065910;28;20028;-82
2023/07/28 10:25:40;;;;;;;3.25;1.55;;;;;;;;;;5068958;28;20024;-82
2023/07/28 10:28:07;;;;;;;1.33;1.02;;;;;;;;;;5066793;28;20035;-80
2023/07/28 10:30:50;;;;;;;0.80;0.70;;;;;;;;;;5068309;28;20042;-79
2023/07/28 10:33:39;;;;;;;0.75;0.75;;;;;;;;;;5063174;28;20395;-80
2023/07/28 10:36:21;;;;;;;2.28;1.08;;;;;;;;;;5062350;28;20036;-80
2023/07/28 10:38:58;;;;;;;1.02;0.68;;;;;;;;;;5064014;28;20486;-78
2023/07/28 10:41:25;;;;;;;4.18;1.10;;;;;;;;;;5069137;28;20483;-80
2023/07/28 10:43:51;;;;;;;1.40;0.90;;;;;;;;;;5069256;28;20553;-80
2023/07/28 10:46:18;;;;;;;1.02;0.93;;;;;;;;;;5071169;28;20036;-82
2023/07/28 10:48:49;;;;;;;0.40;0.40;;;;;;;;;;5066711;28;20025;-82
2023/07/28 10:51:32;;;;;;;0.73;0.73;;;;;;;;;;5070135;28;20388;-81
2023/07/28 10:54:00;;;;;;;0.55;0.55;;;;;;;;;;5067896;28;20082;-83
2023/07/28 10:56:26;;;;;;;0.90;0.63;;;;;;;;;;5070139;28;20536;-79
2023/07/28 10:59:04;;;;;;;0.75;0.73;;;;;;;;;;5066708;28;20472;-79
2023/07/28 11:01:37;;;;;;;1.52;1.20;;;;;;;;;;5067053;28;20040;-80
2023/07/28 11:04:17;;;;;;;1.25;1.00;;;;;;;;;;5069279;28;20029;-80
2023/07/28 11:06:44;;;;;;;0.90;0.65;;;;;;;;;;5068261;28;20388;-79
2023/07/28 11:09:10;;;;;;;1.00;0.77;;;;;;;;;;5068418;28;20032;-79
2023/07/28 11:11:37;;;;;;;0.20;0.20;;;;;;;;;;5070012;28;20067;-79
2023/07/28 11:14:06;;;;;;;0.32;0.25;;;;;;;;;;5068397;28;20028;-79
2023/07/28 11:16:34;;;;;;;0.68;0.52;;;;;;;;;;5070099;28;20060;-79
2023/07/28 11:19:02;;;;;;;0.88;0.73;;;;;;;;;;5069622;28;20031;-79
2023/07/28 11:21:28;;;;;;;2.25;1.10;;;;;;;;;;5068980;28;20376;-78
2023/07/28 11:23:54;;;;;;;0.47;0.45;;;;;;;;;;5066361;28;20085;-78
2023/07/28 11:26:20;;;;;;;1.65;0.82;;;;;;;;;;5068758;28;20024;-79
2023/07/28 11:28:46;;;;;;;0.57;0.57;;;;;;;;;;5068717;28;20024;-78
2023/07/28 11:31:13;;;;;;;0.50;0.50;;;;;;;;;;5066878;28;20028;-78
2023/07/28 11:33:39;;;;;;;1.25;0.77;;;;;;;;;;5061249;28;20087;-79
2023/07/28 11:36:05;;;;;;;0.85;0.57;;;;;;;;;;5063113;28;20032;-79
2023/07/28 11:38:32;;;;;;;0.98;0.77;;;;;;;;;;5064630;28;20480;-78
2023/07/28 11:40:58;;;;;;;0.82;0.75;;;;;;;;;;5069345;28;20479;-79
2023/07/28 11:43:25;;;;;;;1.38;0.88;;;;;;;;;;5068465;28;20111;-80
2023/07/28 11:45:51;;;;;;;0.60;0.60;;;;;;;;;;5068591;28;20032;-79
2023/07/28 11:48:17;;;;;;;0.50;0.45;;;;;;;;;;5069443;28;20372;-78
2023/07/28 11:50:45;;;;;;;0.98;0.50;;;;;;;;;;5069254;28;20101;-78
2023/07/28 11:53:11;;;;;;;1.60;0.98;;;;;;;;;;5069804;28;20032;-78
2023/07/28 11:55:38;;;;;;;0.82;0.43;;;;;;;;;;5067480;28;20481;-78
2023/07/28 11:58:07;;;;;;;0.63;0.63;;;;;;;;;;5066967;28;20070;-79
2023/07/28 12:00:37;;;;;;;0.45;0.45;;;;;;;;;;5065290;28;20449;-81
2023/07/28 12:03:12;;;;;;;1.33;0.57;;;;;;;;;;5069498;28;20379;-84
2023/07/28 12:05:39;;;;;;;0.77;0.65;;;;;;;;;;5067434;28;20025;-79
2023/07/28 12:08:04;;;;;;;0.95;0.65;;;;;;;;;;5067360;28;20095;-79
2023/07/28 12:10:33;;;;;;;0.82;0.60;;;;;;;;;;5069482;28;20044;-79
2023/07/28 12:13:07;;;;;;;0.80;0.80;;;;;;;;;;5069935;28;20037;-78
2023/07/28 12:15:34;;;;;;;1.10;0.70;;;;;;;;;;5069427;28;20036;-78
2023/07/28 12:18:10;;;;;;;0.40;0.40;;;;;;;;;;5071921;28;20101;-78
2023/07/28 12:20:55;;;;;;;1.38;1.00;;;;;;;;;;5070693;28;20032;-77
2023/07/28 12:23:22;;;;;;;1.63;1.25;;;;;;;;;;5072974;28;20476;-80
2023/07/28 12:25:49;;;;;;;1.35;0.43;;;;;;;;;;5071388;28;20475;-78
2023/07/28 12:28:15;;;;;;;1.23;0.45;;;;;;;;;;5064428;28;20102;-78
2023/07/28 12:30:41;;;;;;;0.90;0.57;;;;;;;;;;5072443;28;20025;-78
2023/07/28 12:33:07;;;;;;;0.75;0.63;;;;;;;;;;5068905;28;20032;-82
2023/07/28 12:35:37;;;;;;;1.05;0.70;;;;;;;;;;5066012;28;20029;-81
2023/07/28 12:38:05;;;;;;;0.98;0.70;;;;;;;;;;5072925;28;20052;-80
2023/07/28 12:40:33;;;;;;;0.70;0.70;;;;;;;;;;5069828;28;20039;-81
2023/07/28 12:43:00;;;;;;;1.15;0.77;;;;;;;;;;5072763;28;20479;-82
2023/07/28 12:45:25;;;;;;;0.93;0.75;;;;;;;;;;5072932;28;20028;-82
2023/07/28 12:47:55;;;;;;;0.80;0.52;;;;;;;;;;5071393;28;20500;-81
2023/07/28 12:50:22;;;;;;;0.80;0.60;;;;;;;;;;5072440;28;20036;-83
2023/07/28 12:52:51;;;;;;;1.35;1.08;;;;;;;;;;5069678;28;20365;-81
2023/07/28 12:55:17;;;;;;;1.38;0.77;;;;;;;;;;5068474;28;20058;-82
2023/07/28 12:57:43;;;;;;;1.38;0.90;;;;;;;;;;5071913;28;20021;-81
2023/07/28 13:00:12;;;;;;;1.10;0.73;;;;;;;;;;5071447;28;20470;-82
2023/07/28 13:02:39;;;;;;;0.77;0.77;;;;;;;;;;5071726;28;20059;-82
2023/07/28 13:05:05;;;;;;;0.85;0.82;;;;;;;;;;5071473;28;20056;-82
2023/07/28 13:07:31;;;;;;;0.90;0.70;;;;;;;;;;5071250;28;20036;-80
2023/07/28 13:09:56;;;;;;;0.77;0.77;;;;;;;;;;5070287;28;20078;-80
2023/07/28 13:12:22;;;;;;;0.80;0.73;;;;;;;;;;5072259;28;20070;-81
2023/07/28 13:14:47;;;;;;;0.77;0.65;;;;;;;;;;5071058;28;20415;-81
2023/07/28 13:17:14;;;;;;;1.40;1.05;;;;;;;;;;5072486;28;20450;-80
2023/07/28 13:19:40;;;;;;;0.75;0.75;;;;;;;;;;5072354;28;20129;-82
2023/07/28 13:22:06;;;;;;;1.23;0.90;;;;;;;;;;5071015;28;20551;-82
2023/07/28 13:24:32;;;;;;;0.80;0.50;;;;;;;;;;5070022;28;20029;-82
2023/07/28 13:26:58;;;;;;;6.40;1.15;;;;;;;;;;5070409;28;20549;-79
2023/07/28 13:29:23;;;;;;;0.82;0.65;;;;;;;;;;5071006;28;20029;-81
2023/07/28 13:31:49;;;;;;;1.05;0.60;;;;;;;;;;5071585;28;20102;-81
2023/07/28 13:34:14;;;;;;;1.05;0.85;;;;;;;;;;5070929;28;20086;-81
2023/07/28 13:36:40;;;;;;;1.48;1.02;;;;;;;;;;5071875;28;20027;-81
2023/07/28 13:39:06;;;;;;;1.02;0.75;;;;;;;;;;5071610;28;20078;-83
2023/07/28 13:41:31;;;;;;;1.60;0.85;;;;;;;;;;5070536;28;20365;-82
2023/07/28 13:43:57;;;;;;;0.95;0.80;;;;;;;;;;5071792;28;20094;-82
2023/07/28 13:46:22;;;;;;;1.27;0.82;;;;;;;;;;5070378;28;20082;-81
2023/07/28 13:48:48;;;;;;;0.45;0.45;;;;;;;;;;5072006;28;20457;-82
2023/07/28 13:51:13;;;;;;;0.80;0.60;;;;;;;;;;5063435;28;20036;-84
2023/07/28 13:53:38;;;;;;;1.63;0.75;;;;;;;;;;5071829;28;20464;-82
2023/07/28 13:56:05;;;;;;;1.02;0.70;;;;;;;;;;5067123;28;20105;-83
2023/07/28 13:58:30;;;;;;;1.50;1.08;;;;;;;;;;5070406;28;20020;-81
2023/07/28 14:00:56;;;;;;;1.25;1.00;;;;;;;;;;5069282;28;20028;-81
2023/07/28 14:03:21;;;;;;;1.15;1.00;;;;;;;;;;5069090;28;20035;-82
2023/07/28 14:05:47;;;;;;;0.77;0.50;;;;;;;;;;5071031;28;20357;-80
2023/07/28 14:08:12;;;;;;;1.67;1.00;;;;;;;;;;5070028;28;20036;-83
2023/07/28 14:10:38;;;;;;;0.73;0.60;;;;;;;;;;5065624;28;20031;-83
2023/07/28 14:13:04;;;;;;;1.25;0.85;;;;;;;;;;5068776;28;20039;-82
2023/07/28 14:15:29;;;;;;;0.82;0.60;;;;;;;;;;5068742;28;20020;-81
2023/07/28 14:17:54;;;;;;;1.42;0.93;;;;;;;;;;5070019;28;20036;-83
2023/07/28 14:20:20;;;;;;;0.77;0.60;;;;;;;;;;5068693;28;20495;-81
2023/07/28 14:22:45;;;;;;;1.23;1.10;;;;;;;;;;5067174;28;20024;-83
2023/07/28 14:25:11;;;;;;;0.70;0.40;;;;;;;;;;5067484;28;20032;-81
2023/07/28 14:27:36;;;;;;;1.88;0.70;;;;;;;;;;5067511;28;20456;-81
2023/07/28 14:30:05;;;;;;;1.08;0.98;;;;;;;;;;5066445;28;20020;-82
2023/07/28 14:32:31;;;;;;;;;;;;;;;;;;5070068;28;20037;-82
2023/07/28 14:34:56;;;;;;;1.42;0.85;;;;;;;;;;5070204;28;19922;-83
2023/07/28 14:37:22;;;;;;;0.63;0.60;;;;;;;;;;5067878;28;20062;-83
2023/07/28 14:39:47;;;;;;;0.68;0.57;;;;;;;;;;5071202;28;20079;-82
2023/07/28 14:42:12;;;;;;;1.05;0.95;;;;;;;;;;5067002;28;20090;-83